createdAt,value
2022-10-01T00:01:24.398Z,12.75
2022-10-01T00:03:50.995Z,12.50
2022-10-01T00:06:20.145Z,11.98
2022-10-01T00:08:49.380Z,12.35
2022-10-01T00:11:24.767Z,12.18
2022-10-01T00:13:52.389Z,12.68
2022-10-01T00:16:21.980Z,12.60
2022-10-01T00:18:49.676Z,11.20
2022-10-01T00:21:20.898Z,11.90
2022-10-01T00:23:48.449Z,11.98
2022-10-01T00:26:21.910Z,11.30
2022-10-01T00:28:55.580Z,11.27
2022-10-01T00:31:23.442Z,11.40
2022-10-01T00:33:53.273Z,10.98
2022-10-01T00:36:20.434Z,11.40
2022-10-01T00:38:48.953Z,11.27
2022-10-01T00:41:17.408Z,10.63
2022-10-01T00:43:46.787Z,10.43
2022-10-01T00:46:22.447Z,9.88
2022-10-01T00:49:19.064Z,10.50
2022-10-01T00:51:50.880Z,9.73
2022-10-01T00:54:22.382Z,10.63
2022-10-01T00:56:53.984Z,10.40
2022-10-01T00:59:20.982Z,10.40
2022-10-01T01:01:48.845Z,10.30
2022-10-01T01:04:18.139Z,11.00
2022-10-01T01:06:53.835Z,11.27
2022-10-01T01:09:22.760Z,12.32
2022-10-01T01:12:16.843Z,11.90
2022-10-01T01:14:56.173Z,11.90
2022-10-01T01:17:49.264Z,12.93
2022-10-01T01:20:51.762Z,12.95
2022-10-01T01:23:18.452Z,13.52
2022-10-01T01:26:04.959Z,12.65
2022-10-01T01:28:38.027Z,12.30
2022-10-01T01:31:13.102Z,12.73
2022-10-01T01:33:43.690Z,12.77
2022-10-01T01:36:19.307Z,12.30
2022-10-01T01:38:54.916Z,12.13
2022-10-01T01:41:27.142Z,12.20
2022-10-01T01:43:56.981Z,11.90
2022-10-01T01:46:33.950Z,11.73
2022-10-01T01:49:02.235Z,10.98
2022-10-01T01:51:43.659Z,11.75
2022-10-01T01:54:10.347Z,11.60
2022-10-01T01:56:37.139Z,11.85
2022-10-01T01:59:04.056Z,11.40
2022-10-01T02:01:42.463Z,10.90
2022-10-01T02:04:21.985Z,10.68
2022-10-01T02:07:16.695Z,11.18
2022-10-01T02:10:25.598Z,10.25
2022-10-01T02:13:39.087Z,10.00
2022-10-01T02:16:31.645Z,9.85
2022-10-01T02:19:46.256Z,10.02
2022-10-01T02:22:19.855Z,9.50
2022-10-01T02:24:53.071Z,9.57
2022-10-01T02:27:29.896Z,9.88
2022-10-01T02:30:00.617Z,10.48
2022-10-01T02:32:31.779Z,10.73
2022-10-01T02:35:00.374Z,10.48
2022-10-01T02:37:28.363Z,11.50
2022-10-01T02:39:57.631Z,10.95
2022-10-01T02:42:28.827Z,10.52
2022-10-01T02:45:02.589Z,10.10
2022-10-01T02:47:40.871Z,10.30
2022-10-01T02:50:09.097Z,10.10
2022-10-01T02:53:00.091Z,10.52
2022-10-01T02:55:31.627Z,11.00
2022-10-01T02:57:58.630Z,11.38
2022-10-01T03:00:27.049Z,11.57
2022-10-01T03:02:54.718Z,12.48
2022-10-01T03:05:22.157Z,13.05
2022-10-01T03:07:48.862Z,12.77
2022-10-01T03:10:16.301Z,12.48
2022-10-01T03:12:45.190Z,12.45
2022-10-01T03:15:13.383Z,11.07
2022-10-01T03:17:41.095Z,10.38
2022-10-01T03:20:09.062Z,10.52
2022-10-01T03:22:35.814Z,10.00
2022-10-01T03:25:02.756Z,9.98
2022-10-01T03:27:31.734Z,10.23
2022-10-01T03:29:58.294Z,11.70
2022-10-01T03:32:24.911Z,10.68
2022-10-01T03:34:51.494Z,11.95
2022-10-01T03:37:18.094Z,12.77
2022-10-01T03:39:45.783Z,12.52
2022-10-01T03:42:12.372Z,12.70
2022-10-01T03:44:39.026Z,11.35
2022-10-01T03:47:07.267Z,11.90
2022-10-01T03:49:34.698Z,11.07
2022-10-01T03:52:02.421Z,11.55
2022-10-01T03:54:31.258Z,11.00
2022-10-01T03:56:57.960Z,10.88
2022-10-01T03:59:26.304Z,11.35
2022-10-01T04:01:55.358Z,11.10
2022-10-01T04:04:22.037Z,10.55
2022-10-01T04:06:48.889Z,10.70
2022-10-01T04:09:15.508Z,10.30
2022-10-01T04:11:42.073Z,10.13
2022-10-01T04:14:09.117Z,10.10
2022-10-01T04:16:36.419Z,11.07
2022-10-01T04:19:04.699Z,10.93
2022-10-01T04:21:31.516Z,10.75
2022-10-01T04:23:59.748Z,12.40
2022-10-01T04:26:29.078Z,11.55
2022-10-01T04:28:55.668Z,11.48
2022-10-01T04:31:25.152Z,11.60
2022-10-01T04:33:56.605Z,11.07
2022-10-01T04:36:24.610Z,11.95
2022-10-01T04:39:00.845Z,12.98
2022-10-01T04:41:30.871Z,12.30
2022-10-01T04:43:59.453Z,12.15
2022-10-01T04:46:26.180Z,11.85
2022-10-01T04:48:52.816Z,11.25
2022-10-01T04:51:19.436Z,11.52
2022-10-01T04:53:46.088Z,11.55
2022-10-01T04:56:12.688Z,11.40
2022-10-01T04:58:39.453Z,17.13
2022-10-01T05:01:06.214Z,19.25
2022-10-01T05:03:32.887Z,17.20
2022-10-01T05:06:01.091Z,14.70
2022-10-01T05:08:27.701Z,15.65
2022-10-01T05:10:54.386Z,14.00
2022-10-01T05:13:21.064Z,12.95
2022-10-01T05:15:52.240Z,14.05
2022-10-01T05:18:19.198Z,12.88
